createdAt,value
2018-11-03T00:00:52.157Z,2.20
2018-11-03T00:02:57.392Z,1.80
2018-11-03T00:05:02.639Z,2.13
2018-11-03T00:07:08.173Z,2.07
2018-11-03T00:09:13.941Z,1.90
2018-11-03T00:11:19.157Z,2.40
2018-11-03T00:13:24.555Z,2.00
2018-11-03T00:15:29.367Z,2.10
2018-11-03T00:17:34.425Z,1.87
2018-11-03T00:19:39.903Z,2.30
2018-11-03T00:21:45.274Z,1.83
2018-11-03T00:23:51.393Z,1.97
2018-11-03T00:25:56.882Z,2.73
2018-11-03T00:28:02.415Z,1.90
2018-11-03T00:30:07.681Z,1.70
2018-11-03T00:32:13.241Z,2.30
2018-11-03T00:34:18.572Z,2.07
2018-11-03T00:36:24.325Z,2.20
2018-11-03T00:38:29.527Z,2.23
2018-11-03T00:40:34.689Z,2.30
2018-11-03T00:42:40.137Z,2.17
2018-11-03T00:44:46.148Z,2.03
2018-11-03T00:46:51.491Z,2.50
2018-11-03T00:48:57.655Z,2.00
2018-11-03T00:51:03.102Z,2.03
2018-11-03T00:53:08.389Z,1.93
2018-11-03T00:55:14.041Z,2.40
2018-11-03T00:57:19.749Z,2.60
2018-11-03T00:59:24.793Z,2.37
2018-11-03T01:01:30.637Z,2.10
2018-11-03T01:03:35.852Z,2.37
2018-11-03T01:05:41.095Z,2.27
2018-11-03T01:07:46.998Z,2.50
2018-11-03T01:09:52.387Z,2.20
2018-11-03T01:11:57.851Z,2.17
2018-11-03T01:14:03.614Z,2.03
2018-11-03T01:16:09.111Z,2.33
2018-11-03T01:18:14.635Z,2.40
2018-11-03T01:20:20.431Z,2.17
2018-11-03T01:22:25.442Z,2.40
2018-11-03T01:24:30.529Z,2.80
2018-11-03T01:26:35.735Z,2.00
2018-11-03T01:28:40.380Z,2.20
2018-11-03T01:30:45.847Z,2.10
2018-11-03T01:32:50.786Z,2.20
2018-11-03T01:34:56.004Z,2.23
2018-11-03T01:37:01.404Z,2.50
2018-11-03T01:39:07.147Z,2.07
2018-11-03T01:41:14.161Z,2.10
2018-11-03T01:43:19.179Z,2.07
2018-11-03T01:45:24.360Z,2.13
2018-11-03T01:47:29.999Z,2.03
2018-11-03T01:49:35.400Z,2.40
2018-11-03T01:51:40.677Z,1.90
2018-11-03T01:53:46.006Z,2.17
2018-11-03T01:55:50.993Z,2.00
2018-11-03T01:57:56.070Z,2.43
2018-11-03T02:00:02.503Z,2.37
2018-11-03T02:02:08.079Z,2.63
2018-11-03T02:04:12.862Z,2.23
2018-11-03T02:06:18.157Z,2.57
2018-11-03T02:08:23.177Z,2.47
2018-11-03T02:10:29.635Z,2.00
2018-11-03T02:12:35.550Z,2.33
2018-11-03T02:14:40.584Z,2.40
2018-11-03T02:16:46.245Z,2.73
2018-11-03T02:18:51.369Z,2.77
2018-11-03T02:20:56.489Z,2.30
2018-11-03T02:23:01.535Z,2.97
2018-11-03T02:25:07.007Z,2.37
2018-11-03T02:27:12.070Z,2.60
2018-11-03T02:29:17.254Z,2.40
2018-11-03T02:31:22.393Z,2.27
2018-11-03T02:33:27.458Z,2.17
2018-11-03T02:35:33.009Z,2.40
2018-11-03T02:37:38.462Z,2.30
2018-11-03T02:39:43.684Z,2.40
2018-11-03T02:41:48.846Z,3.00
2018-11-03T02:43:54.308Z,2.70
2018-11-03T02:45:59.740Z,2.87
2018-11-03T02:48:05.382Z,2.47
2018-11-03T02:50:10.731Z,2.83
2018-11-03T02:52:16.382Z,2.70
2018-11-03T02:54:21.762Z,2.97
2018-11-03T02:56:27.368Z,2.37
2018-11-03T02:58:32.737Z,2.93
2018-11-03T03:00:38.414Z,2.87
2018-11-03T03:02:43.146Z,2.43
2018-11-03T03:04:47.945Z,2.83
2018-11-03T03:06:53.220Z,2.80
2018-11-03T03:08:58.619Z,2.70
2018-11-03T03:11:03.948Z,2.83
2018-11-03T03:13:08.918Z,2.30
2018-11-03T03:15:14.927Z,2.17
2018-11-03T03:17:20.695Z,2.30
2018-11-03T03:19:25.640Z,2.00
2018-11-03T03:21:30.688Z,2.30
2018-11-03T03:23:35.726Z,2.40
2018-11-03T03:25:41.209Z,2.60
2018-11-03T03:27:46.485Z,2.77
2018-11-03T03:29:51.823Z,2.87
2018-11-03T03:31:56.963Z,2.40
2018-11-03T03:34:02.021Z,2.70
2018-11-03T03:36:07.570Z,2.43
2018-11-03T03:38:12.830Z,2.40
2018-11-03T03:40:19.174Z,2.90
2018-11-03T03:42:24.601Z,2.77
2018-11-03T03:44:30.202Z,2.60
2018-11-03T03:46:35.286Z,2.23
2018-11-03T03:48:40.787Z,2.40
2018-11-03T03:50:46.164Z,2.80
2018-11-03T03:52:51.441Z,2.33
2018-11-03T03:54:57.000Z,2.30
2018-11-03T03:57:02.047Z,2.47
2018-11-03T03:59:07.399Z,2.80
2018-11-03T04:01:12.272Z,2.70
2018-11-03T04:03:17.231Z,2.77
2018-11-03T04:05:22.064Z,2.50
2018-11-03T04:07:27.627Z,2.73
2018-11-03T04:09:32.824Z,2.73
2018-11-03T04:11:37.835Z,3.07
2018-11-03T04:13:43.344Z,2.90
2018-11-03T04:15:48.577Z,3.00
2018-11-03T04:17:53.856Z,2.73
2018-11-03T04:19:59.416Z,3.60
2018-11-03T04:22:04.679Z,3.10
2018-11-03T04:24:10.528Z,3.30
2018-11-03T04:26:16.270Z,2.37
2018-11-03T04:28:21.626Z,2.90
2018-11-03T04:30:27.246Z,2.50
2018-11-03T04:32:32.215Z,3.37
2018-11-03T04:34:37.134Z,2.40
2018-11-03T04:36:42.238Z,2.73
2018-11-03T04:38:47.751Z,3.13
2018-11-03T04:40:52.873Z,2.60
2018-11-03T04:42:57.826Z,3.00
2018-11-03T04:45:03.141Z,2.90
2018-11-03T04:47:09.115Z,3.03
2018-11-03T04:49:14.310Z,3.40
2018-11-03T04:51:19.254Z,3.47
2018-11-03T04:53:24.573Z,3.03
2018-11-03T04:55:29.727Z,3.03
2018-11-03T04:57:35.323Z,3.17
2018-11-03T04:59:40.285Z,3.00
2018-11-03T05:01:45.248Z,2.87
2018-11-03T05:03:50.945Z,3.13
2018-11-03T05:05:56.343Z,2.80
2018-11-03T05:08:01.523Z,2.47
2018-11-03T05:10:06.745Z,2.40
2018-11-03T05:12:11.989Z,2.60
2018-11-03T05:14:17.109Z,2.77
2018-11-03T05:16:22.327Z,3.10
2018-11-03T05:18:27.420Z,2.90
2018-11-03T05:20:32.320Z,2.73
2018-11-03T05:22:37.501Z,3.27
2018-11-03T05:24:42.527Z,2.70
2018-11-03T05:26:48.296Z,2.90
2018-11-03T05:28:54.117Z,3.10
2018-11-03T05:30:59.635Z,2.93
2018-11-03T05:33:04.631Z,2.87
2018-11-03T05:35:09.724Z,2.60
2018-11-03T05:37:15.356Z,2.60
2018-11-03T05:39:21.985Z,2.70
2018-11-03T05:41:26.956Z,2.73
2018-11-03T05:43:32.078Z,2.90
2018-11-03T05:45:37.352Z,3.40
2018-11-03T05:47:42.685Z,3.33
2018-11-03T05:49:47.419Z,3.77
2018-11-03T05:51:52.804Z,2.77
2018-11-03T05:53:57.774Z,3.40
2018-11-03T05:56:02.796Z,3.07
2018-11-03T05:58:08.419Z,2.77
2018-11-03T06:00:13.636Z,3.13
2018-11-03T06:02:18.765Z,3.13
2018-11-03T06:04:23.911Z,3.40
2018-11-03T06:06:29.027Z,2.90
2018-11-03T06:08:34.357Z,3.27
2018-11-03T06:10:39.259Z,3.30
2018-11-03T06:12:44.152Z,3.33
2018-11-03T06:14:49.728Z,3.70
2018-11-03T06:16:54.549Z,3.20
2018-11-03T06:18:59.631Z,3.50
2018-11-03T06:21:04.960Z,3.10
2018-11-03T06:23:10.401Z,3.67
2018-11-03T06:25:16.028Z,3.13
2018-11-03T06:27:20.887Z,2.97
2018-11-03T06:29:26.399Z,3.27
2018-11-03T06:31:31.914Z,3.13
2018-11-03T06:33:37.033Z,3.50
2018-11-03T06:35:43.104Z,3.43
2018-11-03T06:37:48.384Z,3.00
2018-11-03T06:39:53.704Z,3.03
2018-11-03T06:41:59.394Z,2.90
2018-11-03T06:44:04.421Z,3.33
2018-11-03T06:46:10.117Z,2.90
2018-11-03T06:48:15.569Z,3.53
2018-11-03T06:50:21.316Z,3.80
2018-11-03T06:52:26.828Z,3.93
2018-11-03T06:54:31.806Z,3.20
2018-11-03T06:56:37.217Z,3.90
2018-11-03T06:58:42.197Z,3.07
2018-11-03T07:00:47.179Z,3.23
2018-11-03T07:02:52.884Z,3.27
2018-11-03T07:04:57.965Z,3.23
2018-11-03T07:07:03.563Z,3.37
2018-11-03T07:09:08.823Z,3.20
2018-11-03T07:11:14.276Z,3.23
2018-11-03T07:13:19.606Z,3.33
2018-11-03T07:15:24.591Z,2.80
2018-11-03T07:17:29.780Z,3.63
2018-11-03T07:19:34.745Z,3.03
2018-11-03T07:21:40.233Z,3.20
2018-11-03T07:23:45.357Z,3.37
2018-11-03T07:25:50.697Z,2.60
2018-11-03T07:27:55.964Z,3.50
2018-11-03T07:30:00.994Z,3.43
2018-11-03T07:32:05.950Z,3.77
2018-11-03T07:34:10.843Z,3.33
2018-11-03T07:36:16.312Z,3.50
2018-11-03T07:38:21.132Z,3.43
2018-11-03T07:40:26.584Z,3.10
2018-11-03T07:42:32.041Z,3.40
2018-11-03T07:44:37.469Z,3.73
2018-11-03T07:46:43.100Z,4.00
2018-11-03T07:48:48.037Z,3.60
2018-11-03T07:50:53.389Z,3.30
2018-11-03T07:52:58.305Z,3.20
2018-11-03T07:55:04.789Z,3.33
2018-11-03T07:57:10.269Z,3.30
2018-11-03T07:59:15.389Z,4.00
2018-11-03T08:01:20.819Z,3.33
2018-11-03T08:03:27.117Z,2.77
2018-11-03T08:05:31.979Z,2.93
2018-11-03T08:07:37.989Z,3.17
2018-11-03T08:09:43.712Z,3.30
2018-11-03T08:11:48.590Z,3.80
2018-11-03T08:13:53.883Z,3.10
2018-11-03T08:15:59.007Z,3.57
2018-11-03T08:18:04.361Z,3.63
2018-11-03T08:20:09.561Z,4.17
2018-11-03T08:22:14.893Z,3.63
2018-11-03T08:24:19.915Z,2.90
2018-11-03T08:26:25.272Z,3.80
2018-11-03T08:28:30.543Z,3.50
2018-11-03T08:30:36.104Z,2.90
2018-11-03T08:32:41.745Z,2.80
2018-11-03T08:34:46.736Z,3.27
2018-11-03T08:36:51.896Z,2.90
2018-11-03T08:38:56.900Z,3.07
2018-11-03T08:41:02.126Z,3.27
2018-11-03T08:43:06.977Z,3.00
2018-11-03T08:45:12.637Z,3.23
2018-11-03T08:47:17.890Z,2.40
2018-11-03T08:49:23.285Z,3.30
2018-11-03T08:51:28.405Z,2.73
2018-11-03T08:53:34.065Z,3.00
2018-11-03T08:55:39.352Z,3.20
2018-11-03T08:57:44.702Z,3.30
2018-11-03T08:59:50.146Z,2.90
2018-11-03T09:01:55.322Z,3.57
2018-11-03T09:04:00.589Z,3.00
2018-11-03T09:06:05.738Z,2.70
2018-11-03T09:08:11.278Z,3.10
2018-11-03T09:10:16.925Z,3.07
2018-11-03T09:12:21.823Z,3.10
2018-11-03T09:14:27.001Z,3.13
2018-11-03T09:16:32.307Z,3.20
2018-11-03T09:18:37.172Z,2.90
2018-11-03T09:20:42.194Z,3.23
2018-11-03T09:22:47.814Z,3.57
2018-11-03T09:24:52.972Z,2.93
2018-11-03T09:26:58.382Z,3.53
2018-11-03T09:29:03.881Z,2.90
2018-11-03T09:31:09.303Z,3.43
2018-11-03T09:33:15.369Z,2.93
2018-11-03T09:35:21.067Z,2.93
2018-11-03T09:37:26.155Z,3.07
2018-11-03T09:39:31.012Z,3.20
2018-11-03T09:41:35.845Z,2.90
2018-11-03T09:43:41.515Z,3.03
2018-11-03T09:45:46.865Z,2.83
2018-11-03T09:47:51.839Z,3.50
2018-11-03T09:49:58.364Z,3.17
2018-11-03T09:52:03.569Z,3.20
2018-11-03T09:54:08.980Z,2.60
2018-11-03T09:56:14.277Z,3.13
2018-11-03T09:58:19.792Z,2.50
2018-11-03T10:00:24.973Z,3.13
2018-11-03T10:02:30.447Z,2.90
2018-11-03T10:04:35.607Z,3.17
2018-11-03T10:06:41.209Z,2.77
2018-11-03T10:08:47.076Z,2.90
2018-11-03T10:10:52.232Z,3.07
2018-11-03T10:12:57.503Z,3.23
2018-11-03T10:15:02.425Z,3.33
2018-11-03T10:17:07.681Z,3.13
2018-11-03T10:19:13.078Z,3.00
2018-11-03T10:21:18.128Z,3.63
2018-11-03T10:23:23.799Z,3.00
2018-11-03T10:25:29.006Z,3.17
2018-11-03T10:27:34.215Z,3.00
2018-11-03T10:29:39.876Z,3.20
2018-11-03T10:31:44.780Z,3.13
2018-11-03T10:33:50.213Z,3.10
2018-11-03T10:35:55.521Z,2.80
2018-11-03T10:38:01.128Z,2.53
2018-11-03T10:40:07.652Z,3.03
2018-11-03T10:42:13.042Z,2.60
2018-11-03T10:44:18.397Z,3.30
2018-11-03T10:46:23.680Z,3.17
2018-11-03T10:48:28.894Z,2.90
2018-11-03T10:50:33.747Z,3.47
2018-11-03T10:52:39.410Z,2.97
2018-11-03T10:54:44.907Z,2.93
2018-11-03T10:56:50.296Z,3.23
2018-11-03T10:58:55.808Z,2.60
2018-11-03T11:01:04.682Z,2.90
2018-11-03T11:03:14.050Z,3.17
2018-11-03T11:05:23.274Z,3.07
2018-11-03T11:07:32.271Z,3.80
2018-11-03T11:10:40.407Z,3.13
2018-11-03T11:12:47.835Z,2.97
2018-11-03T11:14:52.708Z,2.90
2018-11-03T11:16:57.837Z,2.37
2018-11-03T11:19:03.094Z,3.17
2018-11-03T11:21:08.640Z,2.80
2018-11-03T11:23:13.827Z,3.33
2018-11-03T11:25:19.374Z,2.93
2018-11-03T11:27:24.671Z,3.03
2018-11-03T11:29:29.674Z,2.87
2018-11-03T11:31:34.564Z,2.97
2018-11-03T11:33:39.703Z,3.17
2018-11-03T11:35:45.022Z,3.13
2018-11-03T11:37:49.965Z,3.00
2018-11-03T11:39:55.298Z,3.10
2018-11-03T11:42:00.249Z,3.10
2018-11-03T11:44:05.432Z,3.40
2018-11-03T11:46:10.591Z,2.60
2018-11-03T11:48:15.870Z,2.80
2018-11-03T11:50:20.988Z,2.90
2018-11-03T11:52:26.249Z,3.23
2018-11-03T11:54:31.479Z,3.30
2018-11-03T11:56:36.433Z,3.17
2018-11-03T11:58:42.150Z,3.90
2018-11-03T12:00:47.568Z,3.27
2018-11-03T12:02:52.967Z,3.33
2018-11-03T12:04:57.768Z,3.27
2018-11-03T12:07:04.039Z,3.17
2018-11-03T12:09:09.332Z,2.87
2018-11-03T12:11:14.418Z,3.33
2018-11-03T12:13:19.402Z,3.20
2018-11-03T12:15:24.581Z,3.20
2018-11-03T12:17:29.673Z,3.00
2018-11-03T12:19:34.886Z,3.30
2018-11-03T12:21:40.008Z,3.23
2018-11-03T12:23:44.777Z,3.10
2018-11-03T12:25:50.163Z,2.90
2018-11-03T12:27:55.216Z,3.20
2018-11-03T12:30:00.807Z,3.50
2018-11-03T12:32:06.043Z,3.30
2018-11-03T12:34:11.837Z,3.37
2018-11-03T12:36:17.049Z,3.37
2018-11-03T12:38:22.229Z,3.40
2018-11-03T12:40:27.660Z,3.37
2018-11-03T12:42:33.460Z,3.07
2018-11-03T12:44:38.571Z,3.43
2018-11-03T12:46:43.985Z,2.97
2018-11-03T12:48:53.937Z,2.93
2018-11-03T12:50:58.943Z,3.40
2018-11-03T12:53:05.515Z,3.33
2018-11-03T12:55:11.227Z,3.47
2018-11-03T12:57:16.314Z,3.77
2018-11-03T12:59:21.458Z,3.30
2018-11-03T13:01:27.995Z,3.23
2018-11-03T13:03:33.104Z,3.50
2018-11-03T13:05:38.152Z,3.40
2018-11-03T13:07:44.808Z,3.27
2018-11-03T13:09:50.081Z,3.00
2018-11-03T13:11:55.449Z,3.40
2018-11-03T13:14:00.847Z,3.67
2018-11-03T13:16:05.835Z,3.60
2018-11-03T13:18:10.773Z,3.67
2018-11-03T13:20:17.080Z,3.00
2018-11-03T13:22:22.496Z,3.37
2018-11-03T13:24:27.892Z,3.60
2018-11-03T13:26:33.479Z,2.93
2018-11-03T13:28:39.019Z,3.57
2018-11-03T13:30:44.628Z,4.07
2018-11-03T13:32:49.880Z,3.50
2018-11-03T13:34:54.770Z,3.80
2018-11-03T13:36:59.945Z,3.20
2018-11-03T13:39:05.856Z,3.20
2018-11-03T13:41:11.048Z,3.30
2018-11-03T13:43:15.741Z,2.87
2018-11-03T13:45:21.292Z,3.30
2018-11-03T13:47:26.425Z,3.20
2018-11-03T13:49:31.980Z,3.47
2018-11-03T13:51:37.155Z,3.23
2018-11-03T13:53:42.241Z,2.47
2018-11-03T13:55:47.472Z,3.07
2018-11-03T13:57:54.468Z,3.83
2018-11-03T13:59:59.792Z,2.97
2018-11-03T14:02:04.907Z,3.17
2018-11-03T14:04:10.361Z,3.03
2018-11-03T14:06:15.508Z,3.20
2018-11-03T14:08:20.521Z,3.43
2018-11-03T14:10:25.563Z,3.63
2018-11-03T14:12:30.707Z,3.60
2018-11-03T14:14:35.681Z,3.13
2018-11-03T14:16:40.699Z,3.20
2018-11-03T14:18:46.181Z,3.27
2018-11-03T14:20:51.444Z,3.60
2018-11-03T14:22:56.386Z,3.90
2018-11-03T14:25:01.506Z,3.77
2018-11-03T14:27:06.697Z,3.90
2018-11-03T14:29:11.847Z,4.00
2018-11-03T14:31:17.058Z,3.60
2018-11-03T14:33:22.884Z,2.70
2018-11-03T14:35:28.427Z,3.50
2018-11-03T14:37:33.620Z,3.87
2018-11-03T14:39:38.771Z,3.57
2018-11-03T14:41:44.058Z,3.40
2018-11-03T14:43:49.154Z,4.10
2018-11-03T14:45:54.776Z,3.47
2018-11-03T14:47:59.757Z,4.07
2018-11-03T14:50:06.595Z,3.80
2018-11-03T14:52:11.545Z,3.40
2018-11-03T14:54:16.926Z,3.97
2018-11-03T14:56:22.303Z,3.70
2018-11-03T14:58:27.545Z,4.20
2018-11-03T15:00:36.560Z,3.50
2018-11-03T15:02:41.605Z,4.03
2018-11-03T15:04:46.811Z,4.03
2018-11-03T15:06:53.854Z,3.30
2018-11-03T15:08:59.358Z,3.30
2018-11-03T15:11:04.868Z,3.50
2018-11-03T15:13:10.572Z,3.20
2018-11-03T15:15:15.871Z,3.73
2018-11-03T15:17:21.361Z,4.07
2018-11-03T15:19:26.446Z,3.33
2018-11-03T15:21:31.584Z,3.97
2018-11-03T15:23:36.801Z,2.90
2018-11-03T15:25:42.069Z,3.90
2018-11-03T15:27:47.418Z,3.57
2018-11-03T15:29:52.993Z,3.90
2018-11-03T15:31:58.197Z,4.13
2018-11-03T15:34:04.155Z,3.77
2018-11-03T15:36:10.017Z,3.33
2018-11-03T15:38:15.232Z,3.80
2018-11-03T15:40:20.794Z,3.70
2018-11-03T15:42:25.923Z,3.70
2018-11-03T15:44:30.925Z,3.90
2018-11-03T15:46:36.133Z,3.80
2018-11-03T15:48:42.012Z,3.77
2018-11-03T15:50:52.616Z,3.67
2018-11-03T15:52:57.800Z,3.57
2018-11-03T15:55:03.936Z,3.60
2018-11-03T15:57:09.055Z,3.70
2018-11-03T15:59:14.447Z,3.47
2018-11-03T16:01:19.788Z,3.30
2018-11-03T16:03:24.790Z,3.30
2018-11-03T16:05:29.905Z,3.70
2018-11-03T16:07:34.897Z,4.00
2018-11-03T16:09:40.098Z,4.07
2018-11-03T16:11:45.528Z,4.20
2018-11-03T16:13:50.425Z,3.93
2018-11-03T16:15:55.412Z,4.03
2018-11-03T16:18:00.748Z,3.60
2018-11-03T16:20:05.964Z,3.97
2018-11-03T16:22:11.323Z,3.80
2018-11-03T16:24:16.648Z,4.10
2018-11-03T16:26:22.352Z,4.20
2018-11-03T16:28:27.774Z,4.00
2018-11-03T16:30:33.157Z,4.27
2018-11-03T16:32:38.645Z,3.57
2018-11-03T16:34:43.660Z,3.93
2018-11-03T16:36:50.014Z,4.00
2018-11-03T16:38:55.172Z,4.03
2018-11-03T16:41:00.395Z,3.70
2018-11-03T16:43:05.511Z,3.80
2018-11-03T16:45:10.743Z,4.43
2018-11-03T16:47:16.036Z,4.27
2018-11-03T16:49:22.191Z,4.13
2018-11-03T16:51:27.098Z,4.03
2018-11-03T16:53:32.268Z,3.67
2018-11-03T16:55:37.680Z,3.90
2018-11-03T16:57:42.986Z,4.53
2018-11-03T16:59:48.325Z,4.40
2018-11-03T17:01:54.667Z,3.90
2018-11-03T17:03:59.906Z,4.30
2018-11-03T17:06:06.614Z,4.23
2018-11-03T17:08:12.083Z,4.37
2018-11-03T17:10:18.021Z,4.40
2018-11-03T17:12:23.635Z,3.80
2018-11-03T17:14:29.020Z,4.00
2018-11-03T17:16:34.248Z,4.50
2018-11-03T17:18:39.475Z,4.27
2018-11-03T17:20:44.837Z,4.90
2018-11-03T17:22:49.545Z,4.10
2018-11-03T17:24:54.701Z,3.77
2018-11-03T17:27:00.341Z,4.13
2018-11-03T17:29:06.408Z,4.70
2018-11-03T17:31:11.393Z,3.93
2018-11-03T17:33:16.597Z,4.60
2018-11-03T17:35:21.816Z,3.80
2018-11-03T17:37:27.133Z,3.80
2018-11-03T17:39:32.676Z,4.80
2018-11-03T17:41:38.196Z,4.07
2018-11-03T17:43:43.057Z,4.23
2018-11-03T17:45:48.048Z,4.37
2018-11-03T17:47:53.033Z,4.00
2018-11-03T17:49:58.454Z,4.10
2018-11-03T17:52:03.783Z,3.63
2018-11-03T17:54:08.728Z,4.23
2018-11-03T17:56:13.916Z,4.03
2018-11-03T17:58:19.234Z,4.13
2018-11-03T18:00:26.961Z,4.07
2018-11-03T18:02:32.274Z,4.10
2018-11-03T18:04:38.887Z,3.50
2018-11-03T18:06:43.851Z,3.30
2018-11-03T18:08:49.067Z,4.53
2018-11-03T18:10:55.857Z,4.00
2018-11-03T18:13:00.799Z,3.90
2018-11-03T18:15:05.872Z,4.50
2018-11-03T18:17:11.155Z,3.83
2018-11-03T18:19:16.506Z,4.00
2018-11-03T18:21:21.610Z,3.90
2018-11-03T18:23:27.237Z,4.10
2018-11-03T18:25:32.239Z,4.53
2018-11-03T18:27:38.195Z,3.23
2018-11-03T18:29:43.154Z,4.00
2018-11-03T18:31:48.816Z,4.27
2018-11-03T18:33:54.000Z,4.27
2018-11-03T18:35:59.481Z,3.57
2018-11-03T18:38:04.549Z,4.20
2018-11-03T18:40:09.867Z,3.10
2018-11-03T18:42:15.497Z,3.37
2018-11-03T18:44:20.737Z,3.67
2018-11-03T18:46:26.077Z,4.00
2018-11-03T18:48:31.505Z,3.77
2018-11-03T18:50:37.813Z,3.60
2018-11-03T18:52:43.458Z,3.53
2018-11-03T18:54:48.806Z,3.10
2018-11-03T18:56:53.867Z,3.77
2018-11-03T18:58:59.125Z,3.23
2018-11-03T19:01:04.536Z,3.90
2018-11-03T19:03:09.875Z,3.70
2018-11-03T19:05:15.551Z,4.40
2018-11-03T19:07:21.162Z,3.23
2018-11-03T19:09:26.778Z,3.40
2018-11-03T19:11:33.796Z,3.30
2018-11-03T19:13:39.246Z,3.67
2018-11-03T19:15:44.583Z,3.57
2018-11-03T19:17:49.958Z,3.70
2018-11-03T19:19:55.378Z,3.53
2018-11-03T19:22:01.561Z,3.60
2018-11-03T19:24:06.818Z,3.30
2018-11-03T19:26:11.658Z,3.80
2018-11-03T19:28:17.167Z,3.23
2018-11-03T19:30:22.999Z,3.30
2018-11-03T19:32:28.082Z,3.30
2018-11-03T19:34:32.964Z,3.73
2018-11-03T19:36:38.106Z,3.40
2018-11-03T19:38:43.150Z,3.50
2018-11-03T19:40:48.358Z,3.87
2018-11-03T19:42:53.642Z,2.70
2018-11-03T19:44:58.729Z,2.97
2018-11-03T19:47:03.855Z,3.20
2018-11-03T19:49:09.009Z,3.03
2018-11-03T19:51:14.463Z,3.13
2018-11-03T19:53:19.771Z,3.70
2018-11-03T19:55:24.755Z,3.40
2018-11-03T19:57:29.791Z,2.80
2018-11-03T19:59:36.004Z,3.20
2018-11-03T20:01:40.970Z,3.10
2018-11-03T20:03:46.622Z,3.60
2018-11-03T20:05:51.786Z,2.77
2018-11-03T20:07:56.917Z,2.70
2018-11-03T20:10:02.222Z,2.80
2018-11-03T20:12:07.810Z,3.40
2018-11-03T20:14:12.958Z,2.87
2018-11-03T20:16:19.020Z,3.07
2018-11-03T20:18:24.577Z,3.40
2018-11-03T20:20:29.938Z,3.47
2018-11-03T20:22:35.919Z,3.07
2018-11-03T20:24:41.159Z,3.17
2018-11-03T20:26:46.310Z,2.83
2018-11-03T20:28:51.037Z,3.13
2018-11-03T20:30:56.043Z,2.90
2018-11-03T20:33:01.081Z,3.30
2018-11-03T20:35:05.930Z,3.03
2018-11-03T20:37:11.380Z,2.80
2018-11-03T20:39:16.320Z,3.10
2018-11-03T20:41:21.766Z,3.07
2018-11-03T20:43:27.255Z,3.10
2018-11-03T20:45:34.503Z,2.20
2018-11-03T20:47:41.761Z,2.90
2018-11-03T20:49:47.165Z,3.07
2018-11-03T20:51:54.376Z,2.80
2018-11-03T20:53:59.732Z,3.00
2018-11-03T20:56:05.075Z,3.00
2018-11-03T20:58:10.510Z,3.00
2018-11-03T21:00:17.788Z,3.00
2018-11-03T21:02:23.266Z,2.67
2018-11-03T21:04:29.067Z,2.70
2018-11-03T21:06:34.559Z,2.90
2018-11-03T21:08:42.020Z,2.37
2018-11-03T21:10:47.380Z,2.57
2018-11-03T21:12:52.901Z,2.60
2018-11-03T21:14:58.567Z,2.40
2018-11-03T21:17:03.960Z,2.73
2018-11-03T21:19:09.918Z,3.10
2018-11-03T21:21:16.700Z,2.97
2018-11-03T21:23:22.252Z,3.10
2018-11-03T21:25:27.747Z,2.50
2018-11-03T21:27:33.303Z,2.50
2018-11-03T21:29:40.650Z,2.80
2018-11-03T21:31:46.202Z,2.97
2018-11-03T21:33:51.197Z,2.60
2018-11-03T21:35:57.151Z,2.47
2018-11-03T21:38:02.469Z,3.07
2018-11-03T21:40:08.100Z,3.00
2018-11-03T21:42:16.826Z,2.87
2018-11-03T21:44:21.861Z,2.93
2018-11-03T21:46:27.272Z,2.17
2018-11-03T21:48:35.017Z,2.33
2018-11-03T21:50:40.076Z,2.30
2018-11-03T21:52:45.475Z,2.70
2018-11-03T21:54:50.787Z,2.77
2018-11-03T21:56:56.625Z,2.43
2018-11-03T21:59:02.587Z,2.73
2018-11-03T22:01:07.668Z,2.50
2018-11-03T22:03:14.966Z,3.20
2018-11-03T22:05:20.354Z,2.70
2018-11-03T22:07:25.803Z,2.60
2018-11-03T22:09:31.256Z,2.60
2018-11-03T22:11:36.725Z,2.30
2018-11-03T22:13:41.814Z,2.33
2018-11-03T22:15:47.452Z,2.50
2018-11-03T22:17:52.864Z,2.57
2018-11-03T22:19:58.069Z,2.20
2018-11-03T22:22:03.443Z,3.00
2018-11-03T22:24:08.423Z,2.83
2018-11-03T22:26:14.225Z,2.57
2018-11-03T22:28:19.463Z,2.77
2018-11-03T22:30:24.670Z,2.47
2018-11-03T22:32:29.632Z,3.17
2018-11-03T22:34:35.050Z,2.67
2018-11-03T22:36:40.451Z,2.60
2018-11-03T22:38:46.168Z,2.70
2018-11-03T22:40:51.526Z,2.20
2018-11-03T22:42:57.434Z,2.50
2018-11-03T22:45:02.557Z,2.30
2018-11-03T22:47:07.892Z,2.53
2018-11-03T22:49:13.350Z,2.07
2018-11-03T22:51:18.629Z,2.23
2018-11-03T22:53:23.986Z,2.10
2018-11-03T22:55:29.968Z,2.57
2018-11-03T22:57:35.450Z,2.30
2018-11-03T22:59:40.535Z,2.33
2018-11-03T23:01:46.332Z,2.17
2018-11-03T23:03:51.048Z,2.03
2018-11-03T23:05:57.188Z,2.20
2018-11-03T23:08:02.553Z,2.17
2018-11-03T23:10:08.061Z,2.10
2018-11-03T23:12:13.768Z,2.30
2018-11-03T23:14:18.956Z,2.57
2018-11-03T23:16:23.948Z,2.80
2018-11-03T23:18:28.981Z,2.23
2018-11-03T23:20:34.620Z,2.50
2018-11-03T23:22:39.843Z,1.90
2018-11-03T23:24:45.025Z,2.37
2018-11-03T23:26:50.562Z,2.17
2018-11-03T23:28:55.925Z,2.17
2018-11-03T23:31:01.267Z,2.63
2018-11-03T23:33:06.506Z,2.40
2018-11-03T23:35:12.441Z,2.43
2018-11-03T23:37:17.351Z,1.90
2018-11-03T23:39:22.850Z,2.47
2018-11-03T23:41:27.983Z,2.30
2018-11-03T23:43:33.947Z,2.10
2018-11-03T23:45:38.798Z,1.97
2018-11-03T23:47:44.084Z,2.00
2018-11-03T23:49:49.436Z,2.47
2018-11-03T23:51:54.507Z,2.10
2018-11-03T23:53:59.487Z,2.07
2018-11-03T23:56:05.844Z,2.10
2018-11-03T23:58:11.121Z,2.40
